createdAt,value
2023-01-09T00:00:46.017Z,99712.78
2023-01-09T00:03:12.966Z,99702.13
2023-01-09T00:05:39.887Z,99698.66
2023-01-09T00:08:06.618Z,99694.84
2023-01-09T00:10:33.566Z,99691.25
2023-01-09T00:13:00.281Z,99688.88
2023-01-09T00:15:27.009Z,99684.56
2023-01-09T00:17:53.679Z,99686.34
2023-01-09T00:20:20.468Z,99687.97
2023-01-09T00:22:47.151Z,99683.72
2023-01-09T00:25:13.877Z,99677.59
2023-01-09T00:27:40.572Z,99686.34
2023-01-09T00:30:08.570Z,99686.22
2023-01-09T00:32:35.242Z,99672.88
2023-01-09T00:35:02.384Z,99679.31
2023-01-09T00:37:29.051Z,99673.16
2023-01-09T00:39:55.732Z,99662.13
2023-01-09T00:42:25.236Z,99659.09
2023-01-09T00:44:54.686Z,99660.94
2023-01-09T00:47:25.735Z,99653.91
2023-01-09T00:49:53.358Z,99647.25
2023-01-09T00:52:20.343Z,99642.53
2023-01-09T00:54:47.490Z,99636.03
2023-01-09T00:57:14.756Z,99630.84
2023-01-09T00:59:42.886Z,99635.94
2023-01-09T01:02:09.953Z,99636.81
2023-01-09T01:04:55.535Z,99641.28
2023-01-09T01:07:41.244Z,99640.53
2023-01-09T01:10:20.311Z,99637.34
2023-01-09T01:12:48.459Z,99629.78
2023-01-09T01:15:15.965Z,99618.97
2023-01-09T01:17:43.132Z,99627.69
2023-01-09T01:20:14.399Z,99625.09
2023-01-09T01:22:42.669Z,99627.69
2023-01-09T01:25:10.153Z,99624.00
2023-01-09T01:27:36.976Z,99626.72
2023-01-09T01:30:04.502Z,99624.00
2023-01-09T01:32:31.287Z,99620.56
2023-01-09T01:34:58.009Z,99620.81
2023-01-09T01:37:24.826Z,99613.72
2023-01-09T01:39:52.153Z,99619.44
2023-01-09T01:42:18.976Z,99607.03
2023-01-09T01:45:10.984Z,99604.66
2023-01-09T01:47:58.647Z,99607.03
2023-01-09T01:50:31.637Z,99599.94
2023-01-09T01:53:09.678Z,99599.81
2023-01-09T01:55:40.691Z,99595.59
2023-01-09T01:58:10.653Z,99589.44
2023-01-09T02:00:40.887Z,99589.50
2023-01-09T02:03:08.263Z,99591.75
2023-01-09T02:05:36.746Z,99586.41
2023-01-09T02:08:03.932Z,99576.00
2023-01-09T02:10:30.943Z,99583.97
2023-01-09T02:12:57.812Z,99581.84
2023-01-09T02:15:24.780Z,99578.31
2023-01-09T02:17:57.880Z,99584.63
2023-01-09T02:20:32.790Z,99583.91
2023-01-09T02:23:18.388Z,99573.91
2023-01-09T02:26:03.895Z,99575.22
2023-01-09T02:28:30.454Z,99578.75
2023-01-09T02:31:14.334Z,99579.75
2023-01-09T02:33:55.182Z,99580.44
2023-01-09T02:36:24.816Z,99588.38
2023-01-09T02:39:02.165Z,99580.66
2023-01-09T02:41:46.850Z,99583.59
2023-01-09T02:44:16.860Z,99576.47
2023-01-09T02:46:43.540Z,99578.19
2023-01-09T02:49:10.691Z,99584.13
2023-01-09T02:51:51.233Z,99581.38
2023-01-09T02:54:27.729Z,99583.47
2023-01-09T02:57:05.443Z,99575.63
2023-01-09T02:59:52.041Z,99574.06
2023-01-09T03:02:39.371Z,99571.19
2023-01-09T03:05:25.775Z,99571.09
2023-01-09T03:07:58.967Z,99566.72
2023-01-09T03:10:40.089Z,99570.97
2023-01-09T03:13:11.228Z,99569.28
2023-01-09T03:15:40.664Z,99563.63
2023-01-09T03:18:09.137Z,99565.66
2023-01-09T03:20:36.362Z,99563.13
2023-01-09T03:23:05.147Z,99558.22
2023-01-09T03:25:33.022Z,99543.88
2023-01-09T03:28:02.209Z,99538.41
2023-01-09T03:30:30.855Z,99542.84
2023-01-09T03:32:57.570Z,99548.00
2023-01-09T03:35:24.801Z,99531.50
2023-01-09T03:37:51.935Z,99534.91
2023-01-09T03:40:19.978Z,99532.06
2023-01-09T03:42:46.985Z,99527.00
2023-01-09T03:45:13.812Z,99517.84
2023-01-09T03:47:40.639Z,99517.09
2023-01-09T03:50:08.096Z,99518.53
2023-01-09T03:52:36.194Z,99514.41
2023-01-09T03:55:03.148Z,99517.06
2023-01-09T03:57:29.861Z,99518.41
2023-01-09T03:59:56.558Z,99506.59
2023-01-09T04:02:23.343Z,99504.56
2023-01-09T04:04:49.990Z,99504.59
2023-01-09T04:07:16.733Z,99506.00
2023-01-09T04:09:43.425Z,99492.63
2023-01-09T04:12:10.099Z,99492.16
2023-01-09T04:14:36.747Z,99500.50
2023-01-09T04:17:03.541Z,99495.28
2023-01-09T04:19:30.268Z,99489.91
2023-01-09T04:21:57.069Z,99497.41
2023-01-09T04:24:23.769Z,99501.16
2023-01-09T04:26:50.609Z,99489.63
2023-01-09T04:29:17.372Z,99492.44
2023-01-09T04:31:44.174Z,99483.19
2023-01-09T04:34:11.028Z,99478.91
2023-01-09T04:36:37.826Z,99475.75
2023-01-09T04:39:04.719Z,99476.50
2023-01-09T04:41:49.588Z,99473.72
2023-01-09T04:44:21.939Z,99473.28
2023-01-09T04:46:48.998Z,99469.75
2023-01-09T04:49:15.961Z,99467.53
2023-01-09T04:51:42.725Z,99467.44
2023-01-09T04:54:09.446Z,99466.84
2023-01-09T04:56:36.942Z,99467.78
2023-01-09T04:59:04.816Z,99458.66
2023-01-09T05:01:31.837Z,99472.31
2023-01-09T05:03:58.686Z,99462.25
2023-01-09T05:06:25.737Z,99463.34
2023-01-09T05:08:52.590Z,99453.06
2023-01-09T05:11:19.460Z,99461.88
2023-01-09T05:13:46.176Z,99457.47
2023-01-09T05:16:12.942Z,99457.09
2023-01-09T05:18:39.742Z,99457.59
2023-01-09T05:21:06.442Z,99457.59
2023-01-09T05:23:33.215Z,99460.78
2023-01-09T05:25:59.952Z,99456.22
2023-01-09T05:28:26.709Z,99463.88
2023-01-09T05:30:53.595Z,99449.34
2023-01-09T05:33:20.351Z,99454.19
2023-01-09T05:35:47.080Z,99451.34
2023-01-09T05:38:13.800Z,99448.19
2023-01-09T05:40:40.790Z,99451.47
2023-01-09T05:43:07.914Z,99444.91
2023-01-09T05:45:35.260Z,99443.25
2023-01-09T05:48:02.073Z,99443.13
2023-01-09T05:50:29.213Z,99439.25
2023-01-09T05:52:56.057Z,99437.34
2023-01-09T05:55:22.768Z,99437.50
2023-01-09T05:57:49.492Z,99436.91
2023-01-09T06:00:16.913Z,99426.09
2023-01-09T06:02:43.785Z,99425.03
2023-01-09T06:05:11.768Z,99422.44
2023-01-09T06:07:40.733Z,99428.94
2023-01-09T06:10:12.458Z,99415.84
2023-01-09T06:12:39.460Z,99416.31
2023-01-09T06:15:08.898Z,99417.84
2023-01-09T06:17:35.793Z,99422.28
2023-01-09T06:20:02.557Z,99436.59
2023-01-09T06:22:29.242Z,99427.25
2023-01-09T06:24:55.917Z,99426.53
2023-01-09T06:27:27.234Z,99418.09
2023-01-09T06:29:53.983Z,99411.25
2023-01-09T06:32:20.746Z,99425.75
2023-01-09T06:34:47.476Z,99419.78
2023-01-09T06:37:14.474Z,99425.31
2023-01-09T06:39:41.247Z,99425.19
2023-01-09T06:42:07.922Z,99422.22
2023-01-09T06:44:36.779Z,99409.03
2023-01-09T06:47:04.411Z,99404.25
2023-01-09T06:49:31.590Z,99396.66
2023-01-09T06:51:58.569Z,99389.44
2023-01-09T06:54:27.400Z,99390.56
2023-01-09T06:56:55.409Z,99381.38
2023-01-09T06:59:22.170Z,99390.88
2023-01-09T07:01:49.059Z,99399.25
2023-01-09T07:04:17.529Z,99402.25
2023-01-09T07:06:47.827Z,99393.38
2023-01-09T07:09:14.540Z,99393.44
2023-01-09T07:11:41.551Z,99384.53
2023-01-09T07:14:08.305Z,99380.50
2023-01-09T07:16:35.050Z,99399.03
2023-01-09T07:19:01.830Z,99401.91
2023-01-09T07:21:28.561Z,99401.03
2023-01-09T07:23:55.546Z,99393.03
2023-01-09T07:26:22.326Z,99400.66
2023-01-09T07:28:49.155Z,99410.28
2023-01-09T07:31:15.945Z,99398.03
2023-01-09T07:33:42.699Z,99406.88
2023-01-09T07:36:09.791Z,99404.00
2023-01-09T07:38:37.589Z,99406.53
2023-01-09T07:41:04.395Z,99407.09
2023-01-09T07:43:31.145Z,99407.44
2023-01-09T07:45:57.896Z,99415.84
2023-01-09T07:48:24.684Z,99409.06
2023-01-09T07:50:51.420Z,99399.34
2023-01-09T07:53:18.204Z,99409.81
2023-01-09T07:55:44.984Z,99414.00
2023-01-09T07:58:11.721Z,99408.00
2023-01-09T08:00:38.472Z,99416.84
2023-01-09T08:03:05.327Z,99416.56
2023-01-09T08:05:32.122Z,99430.84
2023-01-09T08:07:59.009Z,99432.34
2023-01-09T08:10:25.815Z,99426.78
2023-01-09T08:12:52.511Z,99428.91
2023-01-09T08:15:19.244Z,99427.03
2023-01-09T08:17:46.654Z,99432.56
2023-01-09T08:20:14.844Z,99439.72
2023-01-09T08:22:42.747Z,99427.47
2023-01-09T08:25:12.241Z,99430.59
2023-01-09T08:27:39.761Z,99439.66
2023-01-09T08:30:07.048Z,99435.09
2023-01-09T08:32:33.837Z,99431.66
2023-01-09T08:35:00.595Z,99433.31
2023-01-09T08:37:27.342Z,99438.16
2023-01-09T08:39:54.358Z,99449.84
2023-01-09T08:42:40.411Z,99441.94
2023-01-09T08:45:28.910Z,99453.44
2023-01-09T08:47:56.268Z,99454.41
2023-01-09T08:50:23.205Z,99456.06
2023-01-09T08:52:50.106Z,99463.53
2023-01-09T08:55:16.931Z,99460.66
2023-01-09T08:57:54.455Z,99462.16
2023-01-09T09:00:23.261Z,99465.31
2023-01-09T09:02:54.530Z,99466.78
2023-01-09T09:05:22.181Z,99471.63
2023-01-09T09:07:50.165Z,99472.44
2023-01-09T09:10:17.830Z,99469.78
2023-01-09T09:12:44.717Z,99470.44
2023-01-09T09:15:23.986Z,99472.75
2023-01-09T09:17:55.242Z,99459.97
2023-01-09T09:20:23.500Z,99474.22
2023-01-09T09:22:50.633Z,99490.75
2023-01-09T09:25:18.239Z,99484.91
2023-01-09T09:27:45.122Z,99474.09
2023-01-09T09:30:13.415Z,99491.88
2023-01-09T09:32:40.723Z,99490.25
2023-01-09T09:35:08.162Z,99481.09
2023-01-09T09:37:35.324Z,99484.66
2023-01-09T09:40:13.358Z,99496.16
2023-01-09T09:44:00.019Z,99489.63
2023-01-09T09:46:41.867Z,99506.34
2023-01-09T09:49:28.947Z,99503.88
2023-01-09T09:52:26.350Z,99510.84
2023-01-09T09:54:53.435Z,99514.25
2023-01-09T09:57:24.367Z,99520.56
2023-01-09T09:59:52.067Z,99524.72
2023-01-09T10:02:30.687Z,99521.06
2023-01-09T10:05:02.007Z,99520.84
2023-01-09T10:07:35.499Z,99513.69
2023-01-09T10:10:05.854Z,99518.94
2023-01-09T10:12:34.590Z,99505.47
2023-01-09T10:15:04.233Z,99507.50
2023-01-09T10:17:49.138Z,99512.72
2023-01-09T10:20:25.369Z,99514.97
2023-01-09T10:23:02.967Z,99522.94
2023-01-09T10:25:37.037Z,99530.47
2023-01-09T10:28:08.489Z,99531.19
2023-01-09T10:30:44.408Z,99532.06
2023-01-09T10:33:24.493Z,99525.06
2023-01-09T10:36:06.188Z,99520.47
2023-01-09T10:38:36.343Z,99529.13
2023-01-09T10:41:08.121Z,99521.81
2023-01-09T10:43:49.677Z,99539.25
2023-01-09T10:46:23.459Z,99534.78
2023-01-09T10:48:54.267Z,99541.63
2023-01-09T10:51:24.458Z,99543.09
2023-01-09T10:53:55.336Z,99550.22
2023-01-09T10:56:30.999Z,99541.31
2023-01-09T10:58:58.056Z,99551.19
2023-01-09T11:01:29.303Z,99563.28
2023-01-09T11:03:59.239Z,99570.88
2023-01-09T11:06:37.001Z,99563.50
2023-01-09T11:09:05.237Z,99576.34
2023-01-09T11:11:35.226Z,99566.34
2023-01-09T11:14:08.482Z,99574.59
2023-01-09T11:16:35.381Z,99575.41
2023-01-09T11:19:02.194Z,99591.44
2023-01-09T11:21:39.613Z,99584.03
2023-01-09T11:24:21.646Z,99590.16
2023-01-09T11:26:50.843Z,99588.72
2023-01-09T11:29:24.480Z,99589.56
2023-01-09T11:31:58.656Z,99591.59
2023-01-09T11:34:36.143Z,99595.69
2023-01-09T11:37:34.246Z,99594.09
2023-01-09T11:40:01.579Z,99600.84
2023-01-09T11:42:55.518Z,99600.88
2023-01-09T11:45:29.177Z,99593.00
2023-01-09T11:47:55.949Z,99594.88
2023-01-09T11:50:28.119Z,99601.06
2023-01-09T11:53:19.974Z,99607.50
2023-01-09T11:55:49.787Z,99613.25
2023-01-09T11:58:18.604Z,99610.66
2023-01-09T12:00:59.113Z,99615.63
2023-01-09T12:03:32.120Z,99632.88
2023-01-09T12:06:35.358Z,99637.28
2023-01-09T12:09:29.467Z,99638.22
2023-01-09T12:12:29.335Z,99643.34
2023-01-09T12:15:25.098Z,99648.19
2023-01-09T12:18:10.781Z,99644.84
2023-01-09T12:21:02.420Z,99638.22
2023-01-09T12:23:49.377Z,99628.47
2023-01-09T12:26:17.436Z,99623.94
2023-01-09T12:28:53.040Z,99627.19
2023-01-09T12:31:48.315Z,99638.47
2023-01-09T12:34:48.363Z,99634.59
2023-01-09T12:37:37.436Z,99631.47
2023-01-09T12:40:16.471Z,99631.00
2023-01-09T12:42:54.263Z,99630.16
2023-01-09T12:45:47.731Z,99642.31
2023-01-09T12:48:28.291Z,99634.53
2023-01-09T12:51:00.051Z,99644.19
2023-01-09T12:54:01.489Z,99648.25
2023-01-09T12:56:35.103Z,99643.34
2023-01-09T12:59:21.452Z,99648.78
2023-01-09T13:01:50.111Z,99652.56
2023-01-09T13:04:24.228Z,99651.38
2023-01-09T13:06:54.712Z,99660.59
2023-01-09T13:09:25.711Z,99650.13
2023-01-09T13:12:03.616Z,99650.50
2023-01-09T13:14:52.263Z,99642.13
2023-01-09T13:17:23.807Z,99645.38
2023-01-09T13:19:50.976Z,99637.44
2023-01-09T13:22:18.321Z,99640.50
2023-01-09T13:24:58.347Z,99642.56
2023-01-09T13:27:27.162Z,99641.84
2023-01-09T13:30:04.264Z,99654.16
2023-01-09T13:32:42.331Z,99653.91
2023-01-09T13:35:15.843Z,99647.47
2023-01-09T13:37:43.202Z,99650.31
2023-01-09T13:40:26.973Z,99643.53
2023-01-09T13:43:03.436Z,99646.31
2023-01-09T13:45:35.203Z,99652.84
2023-01-09T13:48:12.065Z,99657.44
2023-01-09T13:50:39.639Z,99656.66
2023-01-09T13:53:18.605Z,99663.06
2023-01-09T13:55:58.579Z,99671.84
2023-01-09T13:58:38.298Z,99678.94
2023-01-09T14:01:25.043Z,99689.78
2023-01-09T14:04:35.979Z,99702.41
2023-01-09T14:07:15.592Z,99704.38
2023-01-09T14:09:48.221Z,99710.28
2023-01-09T14:12:15.845Z,99716.44
2023-01-09T14:14:45.463Z,99718.09
2023-01-09T14:17:17.229Z,99726.91
2023-01-09T14:19:44.133Z,99722.56
2023-01-09T14:22:56.101Z,99723.63
2023-01-09T14:25:25.894Z,99724.56
2023-01-09T14:27:55.745Z,99729.00
2023-01-09T14:30:53.498Z,99731.66
2023-01-09T14:33:20.348Z,99739.59
2023-01-09T14:36:13.339Z,99730.75
2023-01-09T14:39:00.290Z,99746.75
2023-01-09T14:41:51.864Z,99761.72
2023-01-09T14:44:28.938Z,99753.81
2023-01-09T14:47:00.050Z,99759.19
2023-01-09T14:49:40.829Z,99766.31
2023-01-09T14:52:22.430Z,99761.81
2023-01-09T14:54:50.066Z,99759.06
2023-01-09T14:57:30.820Z,99768.09
2023-01-09T14:59:59.282Z,99769.69
2023-01-09T15:02:29.151Z,99774.81
2023-01-09T15:04:57.503Z,99773.44
2023-01-09T15:07:31.021Z,99780.47
2023-01-09T15:10:01.288Z,99775.03
2023-01-09T15:12:28.494Z,99782.56
2023-01-09T15:14:58.279Z,99778.94
2023-01-09T15:17:31.020Z,99791.34
2023-01-09T15:19:59.923Z,99799.00
2023-01-09T15:22:34.812Z,99794.56
2023-01-09T15:25:39.938Z,99793.09
2023-01-09T15:28:22.186Z,99807.94
2023-01-09T15:30:54.521Z,99807.28
2023-01-09T15:33:21.557Z,99799.59
2023-01-09T15:35:50.194Z,99808.75
2023-01-09T15:38:21.388Z,99811.13
2023-01-09T15:41:05.003Z,99807.16
2023-01-09T15:43:31.897Z,99815.19
2023-01-09T15:45:59.359Z,99821.31
2023-01-09T15:48:33.145Z,99817.38
2023-01-09T15:51:10.599Z,99823.03
2023-01-09T15:53:37.687Z,99828.22
2023-01-09T15:56:20.372Z,99824.44
2023-01-09T15:58:51.443Z,99827.75
2023-01-09T16:01:35.339Z,99826.47
2023-01-09T16:04:08.842Z,99831.94
2023-01-09T16:06:38.163Z,99836.31
2023-01-09T16:09:05.587Z,99841.63
2023-01-09T16:11:34.379Z,99835.91
2023-01-09T16:14:14.285Z,99850.66
2023-01-09T16:16:42.966Z,99856.72
2023-01-09T16:19:29.851Z,99852.41
2023-01-09T16:21:58.323Z,99851.59
2023-01-09T16:24:48.597Z,99856.03
2023-01-09T16:27:32.317Z,99856.34
2023-01-09T16:30:07.082Z,99855.41
2023-01-09T16:32:36.126Z,99851.44
2023-01-09T16:35:08.160Z,99861.09
2023-01-09T16:37:34.966Z,99857.84
2023-01-09T16:40:24.610Z,99855.44
2023-01-09T16:43:01.401Z,99869.00
2023-01-09T16:45:31.441Z,99869.75
2023-01-09T16:47:58.402Z,99858.47
2023-01-09T16:50:26.463Z,99870.13
2023-01-09T16:52:56.964Z,99869.22
2023-01-09T16:55:23.788Z,99870.34
2023-01-09T16:57:50.788Z,99882.69
2023-01-09T17:00:18.952Z,99878.38
2023-01-09T17:02:46.222Z,99881.63
2023-01-09T17:05:13.270Z,99876.47
2023-01-09T17:07:40.215Z,99879.28
2023-01-09T17:10:10.746Z,99881.34
2023-01-09T17:12:38.682Z,99880.31
2023-01-09T17:15:05.905Z,99877.84
2023-01-09T17:17:32.661Z,99882.28
2023-01-09T17:19:59.505Z,99882.53
2023-01-09T17:22:26.248Z,99886.22
2023-01-09T17:25:11.600Z,99886.44
2023-01-09T17:27:57.179Z,99885.69
2023-01-09T17:30:24.016Z,99889.94
2023-01-09T17:32:51.014Z,99882.22
2023-01-09T17:35:17.964Z,99890.16
2023-01-09T17:37:44.927Z,99886.59
2023-01-09T17:40:23.555Z,99891.19
2023-01-09T17:42:50.526Z,99896.25
2023-01-09T17:45:17.370Z,99891.78
2023-01-09T17:47:45.403Z,99899.84
2023-01-09T17:50:19.226Z,99905.97
2023-01-09T17:52:47.770Z,99893.78
2023-01-09T17:55:15.020Z,99894.50
2023-01-09T17:57:44.823Z,99903.38
2023-01-09T18:00:36.775Z,99909.59
2023-01-09T18:03:05.978Z,99904.06
2023-01-09T18:05:33.563Z,99913.00
2023-01-09T18:08:00.736Z,99925.19
2023-01-09T18:10:27.870Z,99924.53
2023-01-09T18:12:55.809Z,99926.09
2023-01-09T18:15:24.602Z,99927.75
2023-01-09T18:17:52.193Z,99927.78
2023-01-09T18:20:19.454Z,99930.47
2023-01-09T18:22:46.538Z,99936.84
2023-01-09T18:25:13.377Z,99938.47
2023-01-09T18:27:40.238Z,99936.56
2023-01-09T18:30:07.605Z,99932.56
2023-01-09T18:32:34.670Z,99937.78
2023-01-09T18:35:01.649Z,99945.53
2023-01-09T18:37:28.392Z,99947.41
2023-01-09T18:39:55.145Z,99946.09
2023-01-09T18:42:21.998Z,99966.28
2023-01-09T18:44:48.837Z,99967.34
2023-01-09T18:47:15.669Z,99969.88
2023-01-09T18:49:42.746Z,99976.03
2023-01-09T18:52:09.491Z,99963.69
2023-01-09T18:54:38.325Z,99983.81
2023-01-09T18:57:05.209Z,99980.09
2023-01-09T18:59:32.119Z,99980.06
2023-01-09T19:02:01.355Z,99982.09
2023-01-09T19:04:29.111Z,99989.19
2023-01-09T19:06:57.313Z,99996.13
2023-01-09T19:09:24.399Z,99999.69
2023-01-09T19:11:51.179Z,99996.81
2023-01-09T19:14:18.125Z,99996.13
2023-01-09T19:16:44.984Z,100005.22
2023-01-09T19:19:11.838Z,100001.56
2023-01-09T19:21:38.654Z,100012.72
2023-01-09T19:24:05.732Z,100007.38
2023-01-09T19:26:32.601Z,100013.34
2023-01-09T19:29:00.985Z,100012.44
2023-01-09T19:31:29.209Z,100018.56
2023-01-09T19:33:57.510Z,100019.41
2023-01-09T19:36:24.521Z,100024.69
2023-01-09T19:38:59.195Z,100017.50
2023-01-09T19:41:26.677Z,100016.50
2023-01-09T19:43:53.873Z,100019.16
2023-01-09T19:46:23.307Z,100015.50
2023-01-09T19:48:51.230Z,100025.31
2023-01-09T19:51:20.417Z,100026.09
2023-01-09T19:53:53.605Z,100024.03
2023-01-09T19:56:22.984Z,100028.50
2023-01-09T19:58:52.313Z,100033.00
2023-01-09T20:01:21.975Z,100032.66
2023-01-09T20:03:49.319Z,100027.28
2023-01-09T20:06:19.093Z,100030.59
2023-01-09T20:08:50.289Z,100038.88
2023-01-09T20:11:19.396Z,100043.00
2023-01-09T20:13:46.213Z,100039.41
2023-01-09T20:16:21.102Z,100051.91
2023-01-09T20:18:48.041Z,100045.59
2023-01-09T20:21:21.776Z,100044.69
2023-01-09T20:23:51.381Z,100055.31
2023-01-09T20:26:19.069Z,100052.50
2023-01-09T20:28:46.917Z,100059.38
2023-01-09T20:31:17.652Z,100062.94
2023-01-09T20:33:44.787Z,100064.25
2023-01-09T20:36:11.855Z,100075.41
2023-01-09T20:38:40.457Z,100074.13
2023-01-09T20:41:25.958Z,100079.69
2023-01-09T20:44:01.007Z,100090.81
2023-01-09T20:46:29.925Z,100088.19
2023-01-09T20:48:58.683Z,100101.53
2023-01-09T20:51:26.039Z,100100.66
2023-01-09T20:53:56.096Z,100101.63
2023-01-09T20:56:27.087Z,100099.59
2023-01-09T20:58:54.128Z,100102.75
2023-01-09T21:01:23.081Z,100103.88
2023-01-09T21:03:53.492Z,100109.91
2023-01-09T21:06:22.211Z,100102.88
2023-01-09T21:08:50.986Z,100109.34
2023-01-09T21:11:18.146Z,100117.75
2023-01-09T21:13:44.805Z,100115.38
2023-01-09T21:16:14.261Z,100122.41
2023-01-09T21:18:41.666Z,100130.25
2023-01-09T21:21:16.223Z,100128.97
2023-01-09T21:23:47.554Z,100143.16
2023-01-09T21:26:15.532Z,100144.34
2023-01-09T21:28:49.347Z,100136.25
2023-01-09T21:31:18.404Z,100158.75
2023-01-09T21:33:45.464Z,100157.69
2023-01-09T21:36:12.425Z,100160.22
2023-01-09T21:38:39.177Z,100168.34
2023-01-09T21:41:24.460Z,100168.91
2023-01-09T21:44:09.960Z,100167.06
2023-01-09T21:46:51.743Z,100177.03
2023-01-09T21:49:20.810Z,100179.63
2023-01-09T21:51:47.592Z,100184.09
2023-01-09T21:54:14.607Z,100186.69
2023-01-09T21:56:41.554Z,100193.63
2023-01-09T21:59:08.510Z,100201.53
2023-01-09T22:01:35.257Z,100205.94
2023-01-09T22:04:01.952Z,100207.97
2023-01-09T22:06:29.032Z,100208.88
2023-01-09T22:08:57.781Z,100217.47
2023-01-09T22:11:27.433Z,100225.50
2023-01-09T22:13:55.472Z,100230.22
2023-01-09T22:16:25.554Z,100226.81
2023-01-09T22:18:57.740Z,100240.75
2023-01-09T22:21:25.460Z,100246.88
2023-01-09T22:23:52.181Z,100246.72
2023-01-09T22:26:19.525Z,100248.09
2023-01-09T22:28:46.668Z,100253.19
2023-01-09T22:31:19.202Z,100253.09
2023-01-09T22:33:53.115Z,100261.09
2023-01-09T22:36:20.099Z,100267.63
2023-01-09T22:38:47.293Z,100266.44
2023-01-09T22:41:14.042Z,100272.59
2023-01-09T22:43:40.769Z,100273.34
2023-01-09T22:46:11.165Z,100285.97
2023-01-09T22:48:38.838Z,100291.28
2023-01-09T22:51:16.471Z,100297.50
2023-01-09T22:53:43.397Z,100298.44
2023-01-09T22:56:16.033Z,100304.88
2023-01-09T22:58:43.040Z,100323.25
2023-01-09T23:01:13.075Z,100322.34
2023-01-09T23:03:40.294Z,100323.09
2023-01-09T23:06:15.607Z,100324.63
2023-01-09T23:08:42.704Z,100328.47
2023-01-09T23:11:12.619Z,100328.50
2023-01-09T23:13:39.718Z,100325.13
2023-01-09T23:16:07.237Z,100335.69
2023-01-09T23:18:36.960Z,100328.75
2023-01-09T23:21:05.173Z,100326.25
2023-01-09T23:23:32.562Z,100335.69
2023-01-09T23:26:02.460Z,100331.97
2023-01-09T23:28:32.271Z,100336.66
2023-01-09T23:30:58.991Z,100331.28
2023-01-09T23:33:25.600Z,100337.50
2023-01-09T23:35:52.220Z,100345.53
2023-01-09T23:38:18.969Z,100350.84
2023-01-09T23:40:45.605Z,100346.91
2023-01-09T23:43:13.961Z,100361.59
2023-01-09T23:45:45.159Z,100366.78
2023-01-09T23:48:15.587Z,100371.13
2023-01-09T23:50:52.873Z,100383.66
2023-01-09T23:53:20.691Z,100384.41
2023-01-09T23:55:48.124Z,100388.25
2023-01-09T23:58:14.849Z,100394.25
